sensor_id;sensor_type;location;lat;lon;timestamp;temperature;humidity
13346;DHT22;6742;48.036;15.780;2023-10-09T00:01:51;11.60;99.90
13346;DHT22;6742;48.036;15.780;2023-10-09T00:04:19;11.60;99.90
13346;DHT22;6742;48.036;15.780;2023-10-09T00:06:47;11.60;99.90
13346;DHT22;6742;48.036;15.780;2023-10-09T00:09:15;11.60;99.90
13346;DHT22;6742;48.036;15.780;2023-10-09T00:11:58;11.60;99.90
13346;DHT22;6742;48.036;15.780;2023-10-09T00:14:26;11.60;99.90
13346;DHT22;6742;48.036;15.780;2023-10-09T00:16:55;11.60;99.90
13346;DHT22;6742;48.036;15.780;2023-10-09T00:19:31;11.50;99.90
13346;DHT22;6742;48.036;15.780;2023-10-09T00:21:59;11.50;99.90
13346;DHT22;6742;48.036;15.780;2023-10-09T00:24:32;11.50;99.90
13346;DHT22;6742;48.036;15.780;2023-10-09T00:27:00;11.50;99.90
13346;DHT22;6742;48.036;15.780;2023-10-09T00:29:38;11.40;99.90
13346;DHT22;6742;48.036;15.780;2023-10-09T00:32:11;11.40;99.90
13346;DHT22;6742;48.036;15.780;2023-10-09T00:34:48;11.50;99.90
13346;DHT22;6742;48.036;15.780;2023-10-09T00:37:17;11.40;99.90
13346;DHT22;6742;48.036;15.780;2023-10-09T00:39:48;11.40;99.90
13346;DHT22;6742;48.036;15.780;2023-10-09T00:42:23;11.30;99.90
13346;DHT22;6742;48.036;15.780;2023-10-09T00:44:56;11.30;99.90
13346;DHT22;6742;48.036;15.780;2023-10-09T00:47:28;11.20;99.90
13346;DHT22;6742;48.036;15.780;2023-10-09T00:50:02;11.20;99.90
13346;DHT22;6742;48.036;15.780;2023-10-09T00:52:37;11.20;99.90
13346;DHT22;6742;48.036;15.780;2023-10-09T00:55:11;11.30;99.90
13346;DHT22;6742;48.036;15.780;2023-10-09T00:57:43;11.30;99.90
13346;DHT22;6742;48.036;15.780;2023-10-09T01:00:16;11.30;99.90
13346;DHT22;6742;48.036;15.780;2023-10-09T01:02:58;11.30;99.90
13346;DHT22;6742;48.036;15.780;2023-10-09T01:05:45;11.30;99.90
13346;DHT22;6742;48.036;15.780;2023-10-09T01:08:17;11.30;99.90
13346;DHT22;6742;48.036;15.780;2023-10-09T01:10:51;11.30;99.90
13346;DHT22;6742;48.036;15.780;2023-10-09T01:13:24;11.30;99.90
13346;DHT22;6742;48.036;15.780;2023-10-09T01:16:05;11.30;99.90
13346;DHT22;6742;48.036;15.780;2023-10-09T01:18:32;11.30;99.90
13346;DHT22;6742;48.036;15.780;2023-10-09T01:21:04;11.30;99.90
13346;DHT22;6742;48.036;15.780;2023-10-09T01:23:33;11.30;99.90
13346;DHT22;6742;48.036;15.780;2023-10-09T01:26:08;11.30;99.90
13346;DHT22;6742;48.036;15.780;2023-10-09T01:28:35;11.20;99.90
13346;DHT22;6742;48.036;15.780;2023-10-09T01:31:02;11.20;99.90
13346;DHT22;6742;48.036;15.780;2023-10-09T01:33:31;11.10;99.90
13346;DHT22;6742;48.036;15.780;2023-10-09T01:36:01;11.20;99.90
13346;DHT22;6742;48.036;15.780;2023-10-09T01:38:28;11.10;99.90
13346;DHT22;6742;48.036;15.780;2023-10-09T01:41:10;11.10;99.90
13346;DHT22;6742;48.036;15.780;2023-10-09T01:43:41;11.10;99.90
13346;DHT22;6742;48.036;15.780;2023-10-09T01:46:11;11.10;99.90
13346;DHT22;6742;48.036;15.780;2023-10-09T01:48:41;11.10;99.90
13346;DHT22;6742;48.036;15.780;2023-10-09T01:51:13;11.10;99.90
13346;DHT22;6742;48.036;15.780;2023-10-09T01:53:43;11.10;99.90
13346;DHT22;6742;48.036;15.780;2023-10-09T01:56:12;11.20;99.90
13346;DHT22;6742;48.036;15.780;2023-10-09T01:58:42;11.10;99.90
13346;DHT22;6742;48.036;15.780;2023-10-09T02:01:12;11.10;99.90
13346;DHT22;6742;48.036;15.780;2023-10-09T02:03:40;11.10;99.90
13346;DHT22;6742;48.036;15.780;2023-10-09T02:06:09;11.10;99.90
13346;DHT22;6742;48.036;15.780;2023-10-09T02:08:54;11.10;99.90
13346;DHT22;6742;48.036;15.780;2023-10-09T02:11:23;11.10;99.90
13346;DHT22;6742;48.036;15.780;2023-10-09T02:14:07;11.10;99.90
13346;DHT22;6742;48.036;15.780;2023-10-09T02:16:45;11.10;99.90
13346;DHT22;6742;48.036;15.780;2023-10-09T02:19:29;11.10;99.90
13346;DHT22;6742;48.036;15.780;2023-10-09T02:22:00;11.10;99.90
13346;DHT22;6742;48.036;15.780;2023-10-09T02:24:39;11.10;99.90
13346;DHT22;6742;48.036;15.780;2023-10-09T02:27:18;11.10;99.90
13346;DHT22;6742;48.036;15.780;2023-10-09T02:30:06;11.00;99.90
13346;DHT22;6742;48.036;15.780;2023-10-09T02:32:45;11.00;99.90
13346;DHT22;6742;48.036;15.780;2023-10-09T02:35:18;11.00;99.90
13346;DHT22;6742;48.036;15.780;2023-10-09T02:38:04;10.90;99.90
13346;DHT22;6742;48.036;15.780;2023-10-09T02:40:35;10.90;99.90
13346;DHT22;6742;48.036;15.780;2023-10-09T02:43:20;10.90;99.90
13346;DHT22;6742;48.036;15.780;2023-10-09T02:45:50;10.90;99.90
13346;DHT22;6742;48.036;15.780;2023-10-09T02:48:18;11.00;99.90
13346;DHT22;6742;48.036;15.780;2023-10-09T02:50:50;11.00;99.90
13346;DHT22;6742;48.036;15.780;2023-10-09T02:53:17;11.00;99.90
13346;DHT22;6742;48.036;15.780;2023-10-09T02:55:45;10.90;99.90
13346;DHT22;6742;48.036;15.780;2023-10-09T02:58:30;10.90;99.90
13346;DHT22;6742;48.036;15.780;2023-10-09T03:01:02;10.90;99.90
13346;DHT22;6742;48.036;15.780;2023-10-09T03:03:29;10.90;99.90
13346;DHT22;6742;48.036;15.780;2023-10-09T03:05:56;10.80;99.90
13346;DHT22;6742;48.036;15.780;2023-10-09T03:08:23;10.80;99.90
13346;DHT22;6742;48.036;15.780;2023-10-09T03:10:50;10.80;99.90
13346;DHT22;6742;48.036;15.780;2023-10-09T03:13:17;10.80;99.90
13346;DHT22;6742;48.036;15.780;2023-10-09T03:15:47;10.80;99.90
13346;DHT22;6742;48.036;15.780;2023-10-09T03:18:16;10.80;99.90
13346;DHT22;6742;48.036;15.780;2023-10-09T03:20:44;10.80;99.90
13346;DHT22;6742;48.036;15.780;2023-10-09T03:23:12;10.80;99.90
13346;DHT22;6742;48.036;15.780;2023-10-09T03:25:46;10.80;99.90
13346;DHT22;6742;48.036;15.780;2023-10-09T03:28:13;10.80;99.90
13346;DHT22;6742;48.036;15.780;2023-10-09T03:30:41;10.80;99.90
13346;DHT22;6742;48.036;15.780;2023-10-09T03:33:14;10.80;99.90
13346;DHT22;6742;48.036;15.780;2023-10-09T03:35:41;10.80;99.90
13346;DHT22;6742;48.036;15.780;2023-10-09T03:38:08;10.70;99.90
13346;DHT22;6742;48.036;15.780;2023-10-09T03:40:41;10.70;99.90
13346;DHT22;6742;48.036;15.780;2023-10-09T03:43:09;10.70;99.90
13346;DHT22;6742;48.036;15.780;2023-10-09T03:45:37;10.70;99.90
13346;DHT22;6742;48.036;15.780;2023-10-09T03:48:11;10.70;99.90
13346;DHT22;6742;48.036;15.780;2023-10-09T03:50:47;10.70;99.90
13346;DHT22;6742;48.036;15.780;2023-10-09T03:53:21;10.70;99.90
13346;DHT22;6742;48.036;15.780;2023-10-09T03:55:48;10.60;99.90
13346;DHT22;6742;48.036;15.780;2023-10-09T03:58:15;10.60;99.90
13346;DHT22;6742;48.036;15.780;2023-10-09T04:00:44;10.60;99.90
13346;DHT22;6742;48.036;15.780;2023-10-09T04:03:11;10.60;99.90
13346;DHT22;6742;48.036;15.780;2023-10-09T04:05:40;10.50;99.90
13346;DHT22;6742;48.036;15.780;2023-10-09T04:08:10;10.50;99.90
13346;DHT22;6742;48.036;15.780;2023-10-09T04:10:45;10.50;99.90
13346;DHT22;6742;48.036;15.780;2023-10-09T04:13:19;10.50;99.90
13346;DHT22;6742;48.036;15.780;2023-10-09T04:15:50;10.60;99.90
13346;DHT22;6742;48.036;15.780;2023-10-09T04:18:19;10.60;99.90
13346;DHT22;6742;48.036;15.780;2023-10-09T04:20:54;10.60;99.90
13346;DHT22;6742;48.036;15.780;2023-10-09T04:23:45;10.60;99.90
13346;DHT22;6742;48.036;15.780;2023-10-09T04:26:26;10.60;99.90
13346;DHT22;6742;48.036;15.780;2023-10-09T04:28:54;10.50;99.90
13346;DHT22;6742;48.036;15.780;2023-10-09T04:31:21;10.50;99.90
13346;DHT22;6742;48.036;15.780;2023-10-09T04:33:57;10.50;99.90
13346;DHT22;6742;48.036;15.780;2023-10-09T04:36:38;10.50;99.90
13346;DHT22;6742;48.036;15.780;2023-10-09T04:39:14;10.50;99.90
13346;DHT22;6742;48.036;15.780;2023-10-09T04:42:00;10.60;99.90
13346;DHT22;6742;48.036;15.780;2023-10-09T04:44:41;10.50;99.90
13346;DHT22;6742;48.036;15.780;2023-10-09T04:47:26;10.50;99.90
13346;DHT22;6742;48.036;15.780;2023-10-09T04:50:01;10.50;99.90
13346;DHT22;6742;48.036;15.780;2023-10-09T04:52:32;10.50;99.90
13346;DHT22;6742;48.036;15.780;2023-10-09T04:55:17;10.40;99.90
13346;DHT22;6742;48.036;15.780;2023-10-09T04:57:46;10.40;99.90
13346;DHT22;6742;48.036;15.780;2023-10-09T05:00:26;10.40;99.90
13346;DHT22;6742;48.036;15.780;2023-10-09T05:03:12;10.40;99.90
13346;DHT22;6742;48.036;15.780;2023-10-09T05:05:51;10.40;99.90
13346;DHT22;6742;48.036;15.780;2023-10-09T05:08:26;10.40;99.90
13346;DHT22;6742;48.036;15.780;2023-10-09T05:10:58;10.40;99.90
13346;DHT22;6742;48.036;15.780;2023-10-09T05:13:41;10.40;99.90
13346;DHT22;6742;48.036;15.780;2023-10-09T05:16:11;10.30;99.90
13346;DHT22;6742;48.036;15.780;2023-10-09T05:18:44;10.30;99.90
13346;DHT22;6742;48.036;15.780;2023-10-09T05:21:21;10.30;99.90
13346;DHT22;6742;48.036;15.780;2023-10-09T05:24:10;10.30;99.90
13346;DHT22;6742;48.036;15.780;2023-10-09T05:26:47;10.30;99.90
13346;DHT22;6742;48.036;15.780;2023-10-09T05:29:18;10.30;99.90
13346;DHT22;6742;48.036;15.780;2023-10-09T05:32:00;10.30;99.90
13346;DHT22;6742;48.036;15.780;2023-10-09T05:34:31;10.30;99.90
13346;DHT22;6742;48.036;15.780;2023-10-09T05:37:00;10.30;99.90
13346;DHT22;6742;48.036;15.780;2023-10-09T05:39:44;10.40;99.90
13346;DHT22;6742;48.036;15.780;2023-10-09T05:42:33;10.50;99.90
13346;DHT22;6742;48.036;15.780;2023-10-09T05:45:09;10.60;99.90
13346;DHT22;6742;48.036;15.780;2023-10-09T05:47:54;10.60;99.90
13346;DHT22;6742;48.036;15.780;2023-10-09T05:50:22;10.70;99.90
13346;DHT22;6742;48.036;15.780;2023-10-09T05:53:02;10.70;99.90
13346;DHT22;6742;48.036;15.780;2023-10-09T05:55:42;10.80;99.90
13346;DHT22;6742;48.036;15.780;2023-10-09T05:58:36;10.90;99.90
13346;DHT22;6742;48.036;15.780;2023-10-09T06:01:29;11.10;99.90
13346;DHT22;6742;48.036;15.780;2023-10-09T06:04:13;11.20;99.90
13346;DHT22;6742;48.036;15.780;2023-10-09T06:06:43;11.30;99.90
13346;DHT22;6742;48.036;15.780;2023-10-09T06:09:11;11.50;99.90
13346;DHT22;6742;48.036;15.780;2023-10-09T06:12:10;11.70;99.90
13346;DHT22;6742;48.036;15.780;2023-10-09T06:14:56;11.90;99.90
13346;DHT22;6742;48.036;15.780;2023-10-09T06:17:44;12.00;99.90
13346;DHT22;6742;48.036;15.780;2023-10-09T06:20:16;12.10;99.90
13346;DHT22;6742;48.036;15.780;2023-10-09T06:23:00;12.10;99.90
13346;DHT22;6742;48.036;15.780;2023-10-09T06:25:42;12.30;99.90
13346;DHT22;6742;48.036;15.780;2023-10-09T06:28:17;12.40;99.90
13346;DHT22;6742;48.036;15.780;2023-10-09T06:30:59;12.30;99.90
13346;DHT22;6742;48.036;15.780;2023-10-09T06:33:46;12.10;99.90
13346;DHT22;6742;48.036;15.780;2023-10-09T06:36:33;11.90;99.90
13346;DHT22;6742;48.036;15.780;2023-10-09T06:38:59;11.60;99.90
13346;DHT22;6742;48.036;15.780;2023-10-09T06:42:00;11.50;99.90
13346;DHT22;6742;48.036;15.780;2023-10-09T06:44:35;11.50;99.90
13346;DHT22;6742;48.036;15.780;2023-10-09T06:47:17;11.60;99.90
13346;DHT22;6742;48.036;15.780;2023-10-09T06:49:44;11.50;99.90
13346;DHT22;6742;48.036;15.780;2023-10-09T06:52:32;11.60;99.90
13346;DHT22;6742;48.036;15.780;2023-10-09T06:55:13;11.60;99.90
13346;DHT22;6742;48.036;15.780;2023-10-09T06:57:46;11.50;99.90
13346;DHT22;6742;48.036;15.780;2023-10-09T07:00:15;11.50;99.90
13346;DHT22;6742;48.036;15.780;2023-10-09T07:02:57;11.50;99.90
13346;DHT22;6742;48.036;15.780;2023-10-09T07:05:30;11.70;99.90
13346;DHT22;6742;48.036;15.780;2023-10-09T07:08:14;12.00;99.90
13346;DHT22;6742;48.036;15.780;2023-10-09T07:11:02;12.20;99.90
13346;DHT22;6742;48.036;15.780;2023-10-09T07:13:47;12.40;99.90
13346;DHT22;6742;48.036;15.780;2023-10-09T07:16:20;12.60;99.90
13346;DHT22;6742;48.036;15.780;2023-10-09T07:18:55;12.60;99.90
13346;DHT22;6742;48.036;15.780;2023-10-09T07:21:35;12.70;99.90
13346;DHT22;6742;48.036;15.780;2023-10-09T07:24:04;12.70;99.90
13346;DHT22;6742;48.036;15.780;2023-10-09T07:26:40;12.70;99.90
13346;DHT22;6742;48.036;15.780;2023-10-09T07:29:13;12.80;99.90
13346;DHT22;6742;48.036;15.780;2023-10-09T07:31:48;13.00;99.90
13346;DHT22;6742;48.036;15.780;2023-10-09T07:34:24;13.20;99.90
13346;DHT22;6742;48.036;15.780;2023-10-09T07:36:58;13.60;99.90
13346;DHT22;6742;48.036;15.780;2023-10-09T07:39:31;13.80;99.90
13346;DHT22;6742;48.036;15.780;2023-10-09T07:42:04;14.10;99.90
13346;DHT22;6742;48.036;15.780;2023-10-09T07:44:45;14.50;99.90
13346;DHT22;6742;48.036;15.780;2023-10-09T07:47:19;14.80;99.90
13346;DHT22;6742;48.036;15.780;2023-10-09T07:50:12;14.80;99.90
13346;DHT22;6742;48.036;15.780;2023-10-09T07:52:46;14.50;99.90
13346;DHT22;6742;48.036;15.780;2023-10-09T07:55:15;14.20;99.90
13346;DHT22;6742;48.036;15.780;2023-10-09T07:57:52;13.80;99.90
13346;DHT22;6742;48.036;15.780;2023-10-09T08:00:19;13.70;99.90
13346;DHT22;6742;48.036;15.780;2023-10-09T08:03:24;13.70;99.90
13346;DHT22;6742;48.036;15.780;2023-10-09T08:05:52;13.80;99.90
13346;DHT22;6742;48.036;15.780;2023-10-09T08:08:32;14.00;99.90
13346;DHT22;6742;48.036;15.780;2023-10-09T08:11:29;14.50;99.90
13346;DHT22;6742;48.036;15.780;2023-10-09T08:14:25;15.30;99.90
13346;DHT22;6742;48.036;15.780;2023-10-09T08:17:06;16.60;99.90
13346;DHT22;6742;48.036;15.780;2023-10-09T08:19:39;17.20;99.90
13346;DHT22;6742;48.036;15.780;2023-10-09T08:22:21;17.60;99.90
13346;DHT22;6742;48.036;15.780;2023-10-09T08:25:06;17.80;99.90
13346;DHT22;6742;48.036;15.780;2023-10-09T08:27:33;17.20;99.90
13346;DHT22;6742;48.036;15.780;2023-10-09T08:30:20;17.00;99.90
13346;DHT22;6742;48.036;15.780;2023-10-09T08:33:06;16.60;99.90
13346;DHT22;6742;48.036;15.780;2023-10-09T08:35:47;16.60;99.90
13346;DHT22;6742;48.036;15.780;2023-10-09T08:38:16;16.60;99.90
13346;DHT22;6742;48.036;15.780;2023-10-09T08:40:49;16.90;99.90
13346;DHT22;6742;48.036;15.780;2023-10-09T08:43:18;17.30;99.90
13346;DHT22;6742;48.036;15.780;2023-10-09T08:45:46;17.00;99.90
13346;DHT22;6742;48.036;15.780;2023-10-09T08:48:14;17.00;99.90
13346;DHT22;6742;48.036;15.780;2023-10-09T08:50:41;17.10;99.90
13346;DHT22;6742;48.036;15.780;2023-10-09T08:53:09;16.90;99.90
13346;DHT22;6742;48.036;15.780;2023-10-09T08:55:40;16.80;99.90
13346;DHT22;6742;48.036;15.780;2023-10-09T08:58:07;16.70;99.90
13346;DHT22;6742;48.036;15.780;2023-10-09T09:00:46;16.60;99.90
13346;DHT22;6742;48.036;15.780;2023-10-09T09:03:14;16.80;99.90
13346;DHT22;6742;48.036;15.780;2023-10-09T09:05:45;16.90;99.90
13346;DHT22;6742;48.036;15.780;2023-10-09T09:08:24;17.00;99.90
13346;DHT22;6742;48.036;15.780;2023-10-09T09:10:58;17.40;99.90
13346;DHT22;6742;48.036;15.780;2023-10-09T09:13:37;18.10;99.90
13346;DHT22;6742;48.036;15.780;2023-10-09T09:16:13;18.10;99.90
13346;DHT22;6742;48.036;15.780;2023-10-09T09:18:50;18.20;99.90
13346;DHT22;6742;48.036;15.780;2023-10-09T09:21:22;18.30;99.90
13346;DHT22;6742;48.036;15.780;2023-10-09T09:23:56;18.30;99.90
13346;DHT22;6742;48.036;15.780;2023-10-09T09:26:37;18.50;99.90
13346;DHT22;6742;48.036;15.780;2023-10-09T09:29:05;18.90;99.90
13346;DHT22;6742;48.036;15.780;2023-10-09T09:31:33;19.30;99.90
13346;DHT22;6742;48.036;15.780;2023-10-09T09:34:04;19.70;99.90
13346;DHT22;6742;48.036;15.780;2023-10-09T09:36:49;19.90;99.90
13346;DHT22;6742;48.036;15.780;2023-10-09T09:39:21;20.00;99.90
13346;DHT22;6742;48.036;15.780;2023-10-09T09:41:56;19.80;99.90
13346;DHT22;6742;48.036;15.780;2023-10-09T09:44:31;19.70;99.90
13346;DHT22;6742;48.036;15.780;2023-10-09T09:47:00;19.60;99.90
13346;DHT22;6742;48.036;15.780;2023-10-09T09:49:27;19.70;99.90
13346;DHT22;6742;48.036;15.780;2023-10-09T09:52:00;20.00;99.90
13346;DHT22;6742;48.036;15.780;2023-10-09T09:54:28;20.50;99.90
13346;DHT22;6742;48.036;15.780;2023-10-09T09:57:02;20.70;99.90
13346;DHT22;6742;48.036;15.780;2023-10-09T09:59:38;20.80;99.90
13346;DHT22;6742;48.036;15.780;2023-10-09T10:02:20;20.70;99.90
13346;DHT22;6742;48.036;15.780;2023-10-09T10:04:54;21.00;99.90
13346;DHT22;6742;48.036;15.780;2023-10-09T10:07:23;21.00;99.90
13346;DHT22;6742;48.036;15.780;2023-10-09T10:09:51;20.60;99.90
13346;DHT22;6742;48.036;15.780;2023-10-09T10:12:52;20.70;99.90
13346;DHT22;6742;48.036;15.780;2023-10-09T10:16:05;20.90;99.90
13346;DHT22;6742;48.036;15.780;2023-10-09T10:18:59;20.90;99.90
13346;DHT22;6742;48.036;15.780;2023-10-09T10:21:32;21.20;99.90
13346;DHT22;6742;48.036;15.780;2023-10-09T10:24:00;20.90;99.90
13346;DHT22;6742;48.036;15.780;2023-10-09T10:26:32;20.70;99.90
13346;DHT22;6742;48.036;15.780;2023-10-09T10:29:18;20.80;99.90
13346;DHT22;6742;48.036;15.780;2023-10-09T10:31:56;21.00;99.90
13346;DHT22;6742;48.036;15.780;2023-10-09T10:34:24;21.10;99.90
13346;DHT22;6742;48.036;15.780;2023-10-09T10:36:52;21.20;99.90
13346;DHT22;6742;48.036;15.780;2023-10-09T10:39:31;21.20;99.90
13346;DHT22;6742;48.036;15.780;2023-10-09T10:42:10;21.20;99.90
13346;DHT22;6742;48.036;15.780;2023-10-09T10:44:44;21.20;99.90
13346;DHT22;6742;48.036;15.780;2023-10-09T10:47:12;21.30;99.90
13346;DHT22;6742;48.036;15.780;2023-10-09T10:49:51;21.20;99.90
13346;DHT22;6742;48.036;15.780;2023-10-09T10:52:24;21.10;99.90
13346;DHT22;6742;48.036;15.780;2023-10-09T10:55:12;21.10;99.90
13346;DHT22;6742;48.036;15.780;2023-10-09T10:58:15;21.10;99.90
13346;DHT22;6742;48.036;15.780;2023-10-09T11:00:53;21.20;99.90
13346;DHT22;6742;48.036;15.780;2023-10-09T11:03:39;21.40;99.90
13346;DHT22;6742;48.036;15.780;2023-10-09T11:06:33;21.60;99.90
13346;DHT22;6742;48.036;15.780;2023-10-09T11:09:04;21.80;99.10
13346;DHT22;6742;48.036;15.780;2023-10-09T11:11:47;21.80;99.80
13346;DHT22;6742;48.036;15.780;2023-10-09T11:14:15;21.40;99.90
13346;DHT22;6742;48.036;15.780;2023-10-09T11:16:43;21.20;99.90
13346;DHT22;6742;48.036;15.780;2023-10-09T11:19:14;21.20;99.90
13346;DHT22;6742;48.036;15.780;2023-10-09T11:21:56;21.40;99.90
13346;DHT22;6742;48.036;15.780;2023-10-09T11:24:41;21.80;99.90
13346;DHT22;6742;48.036;15.780;2023-10-09T11:27:09;22.30;98.80
13346;DHT22;6742;48.036;15.780;2023-10-09T11:29:48;22.40;99.30
13346;DHT22;6742;48.036;15.780;2023-10-09T11:32:31;22.00;99.20
13346;DHT22;6742;48.036;15.780;2023-10-09T11:35:10;21.70;98.70
13346;DHT22;6742;48.036;15.780;2023-10-09T11:37:42;21.40;99.10
13346;DHT22;6742;48.036;15.780;2023-10-09T11:40:27;21.30;99.30
13346;DHT22;6742;48.036;15.780;2023-10-09T11:43:00;21.30;99.90
13346;DHT22;6742;48.036;15.780;2023-10-09T11:45:27;21.20;99.00
13346;DHT22;6742;48.036;15.780;2023-10-09T11:47:57;21.10;99.20
13346;DHT22;6742;48.036;15.780;2023-10-09T11:50:39;20.90;98.70
13346;DHT22;6742;48.036;15.780;2023-10-09T11:53:11;20.70;98.70
13346;DHT22;6742;48.036;15.780;2023-10-09T11:55:59;20.60;99.10
13346;DHT22;6742;48.036;15.780;2023-10-09T11:58:26;20.30;99.60
13346;DHT22;6742;48.036;15.780;2023-10-09T12:00:53;20.10;99.70
13346;DHT22;6742;48.036;15.780;2023-10-09T12:03:25;19.90;99.90
13346;DHT22;6742;48.036;15.780;2023-10-09T12:05:56;19.60;99.90
13346;DHT22;6742;48.036;15.780;2023-10-09T12:08:25;19.30;99.90
13346;DHT22;6742;48.036;15.780;2023-10-09T12:10:54;19.30;99.90
13346;DHT22;6742;48.036;15.780;2023-10-09T12:13:24;19.40;99.90
13346;DHT22;6742;48.036;15.780;2023-10-09T12:15:52;19.40;99.90
13346;DHT22;6742;48.036;15.780;2023-10-09T12:18:20;19.50;99.90
13346;DHT22;6742;48.036;15.780;2023-10-09T12:20:49;19.50;99.90
13346;DHT22;6742;48.036;15.780;2023-10-09T12:23:29;19.50;99.90
13346;DHT22;6742;48.036;15.780;2023-10-09T12:26:01;19.40;99.90
13346;DHT22;6742;48.036;15.780;2023-10-09T12:28:28;19.40;99.90
13346;DHT22;6742;48.036;15.780;2023-10-09T12:30:55;19.40;99.90
13346;DHT22;6742;48.036;15.780;2023-10-09T12:33:29;19.50;99.90
13346;DHT22;6742;48.036;15.780;2023-10-09T12:35:56;19.50;99.90
13346;DHT22;6742;48.036;15.780;2023-10-09T12:38:25;19.50;99.90
13346;DHT22;6742;48.036;15.780;2023-10-09T12:41:02;19.40;99.90
13346;DHT22;6742;48.036;15.780;2023-10-09T12:43:34;19.30;99.90
13346;DHT22;6742;48.036;15.780;2023-10-09T12:46:05;19.30;99.90
13346;DHT22;6742;48.036;15.780;2023-10-09T12:48:33;19.20;99.90
13346;DHT22;6742;48.036;15.780;2023-10-09T12:51:01;19.10;99.90
13346;DHT22;6742;48.036;15.780;2023-10-09T12:53:31;19.10;99.90
13346;DHT22;6742;48.036;15.780;2023-10-09T12:55:58;19.20;99.90
13346;DHT22;6742;48.036;15.780;2023-10-09T12:58:27;19.20;99.90
13346;DHT22;6742;48.036;15.780;2023-10-09T13:00:54;19.20;99.90
13346;DHT22;6742;48.036;15.780;2023-10-09T13:03:21;19.20;99.90
13346;DHT22;6742;48.036;15.780;2023-10-09T13:05:54;19.10;99.90
13346;DHT22;6742;48.036;15.780;2023-10-09T13:08:23;19.10;99.90
13346;DHT22;6742;48.036;15.780;2023-10-09T13:11:01;19.00;99.90
13346;DHT22;6742;48.036;15.780;2023-10-09T13:13:31;19.00;99.90
13346;DHT22;6742;48.036;15.780;2023-10-09T13:16:09;19.00;99.90
13346;DHT22;6742;48.036;15.780;2023-10-09T13:18:39;19.00;99.90
13346;DHT22;6742;48.036;15.780;2023-10-09T13:21:06;19.00;99.90
13346;DHT22;6742;48.036;15.780;2023-10-09T13:23:34;18.90;99.90
13346;DHT22;6742;48.036;15.780;2023-10-09T13:26:07;18.90;99.90
13346;DHT22;6742;48.036;15.780;2023-10-09T13:28:49;18.80;99.90
13346;DHT22;6742;48.036;15.780;2023-10-09T13:31:16;18.70;99.90
13346;DHT22;6742;48.036;15.780;2023-10-09T13:33:44;18.70;99.90
13346;DHT22;6742;48.036;15.780;2023-10-09T13:36:12;18.60;99.90
13346;DHT22;6742;48.036;15.780;2023-10-09T13:38:52;18.40;99.90
13346;DHT22;6742;48.036;15.780;2023-10-09T13:41:20;18.10;99.90
13346;DHT22;6742;48.036;15.780;2023-10-09T13:43:48;18.10;99.90
13346;DHT22;6742;48.036;15.780;2023-10-09T13:46:17;18.00;99.90
13346;DHT22;6742;48.036;15.780;2023-10-09T13:48:44;17.80;99.90
13346;DHT22;6742;48.036;15.780;2023-10-09T13:51:15;17.80;99.90
13346;DHT22;6742;48.036;15.780;2023-10-09T13:53:44;17.70;99.90
13346;DHT22;6742;48.036;15.780;2023-10-09T13:56:14;17.70;99.90
13346;DHT22;6742;48.036;15.780;2023-10-09T13:58:44;17.70;99.90
13346;DHT22;6742;48.036;15.780;2023-10-09T14:01:13;17.60;99.90
13346;DHT22;6742;48.036;15.780;2023-10-09T14:03:55;17.60;99.90
13346;DHT22;6742;48.036;15.780;2023-10-09T14:06:22;17.60;99.90
13346;DHT22;6742;48.036;15.780;2023-10-09T14:08:57;17.60;99.90
13346;DHT22;6742;48.036;15.780;2023-10-09T14:11:25;17.60;99.90
13346;DHT22;6742;48.036;15.780;2023-10-09T14:13:52;17.60;99.90
13346;DHT22;6742;48.036;15.780;2023-10-09T14:16:20;17.60;99.90
13346;DHT22;6742;48.036;15.780;2023-10-09T14:18:53;17.50;99.90
13346;DHT22;6742;48.036;15.780;2023-10-09T14:21:23;17.50;99.90
13346;DHT22;6742;48.036;15.780;2023-10-09T14:23:51;17.60;99.90
13346;DHT22;6742;48.036;15.780;2023-10-09T14:26:23;17.60;99.90
13346;DHT22;6742;48.036;15.780;2023-10-09T14:28:51;17.70;99.90
13346;DHT22;6742;48.036;15.780;2023-10-09T14:31:20;17.60;99.90
13346;DHT22;6742;48.036;15.780;2023-10-09T14:33:52;17.60;99.90
13346;DHT22;6742;48.036;15.780;2023-10-09T14:36:19;17.60;99.90
13346;DHT22;6742;48.036;15.780;2023-10-09T14:38:48;17.50;99.90
13346;DHT22;6742;48.036;15.780;2023-10-09T14:41:19;17.50;99.90
13346;DHT22;6742;48.036;15.780;2023-10-09T14:43:49;17.50;99.90
13346;DHT22;6742;48.036;15.780;2023-10-09T14:46:16;17.60;99.90
13346;DHT22;6742;48.036;15.780;2023-10-09T14:48:50;17.40;99.90
13346;DHT22;6742;48.036;15.780;2023-10-09T14:51:20;17.40;99.90
13346;DHT22;6742;48.036;15.780;2023-10-09T14:53:56;17.30;99.90
13346;DHT22;6742;48.036;15.780;2023-10-09T14:56:27;17.40;99.90
13346;DHT22;6742;48.036;15.780;2023-10-09T14:58:59;17.30;99.90
13346;DHT22;6742;48.036;15.780;2023-10-09T15:01:26;17.30;99.90
13346;DHT22;6742;48.036;15.780;2023-10-09T15:03:58;17.30;99.90
13346;DHT22;6742;48.036;15.780;2023-10-09T15:06:26;17.30;99.90
13346;DHT22;6742;48.036;15.780;2023-10-09T15:08:56;17.30;99.90
13346;DHT22;6742;48.036;15.780;2023-10-09T15:11:24;17.30;99.90
13346;DHT22;6742;48.036;15.780;2023-10-09T15:13:54;17.30;99.90
13346;DHT22;6742;48.036;15.780;2023-10-09T15:16:21;17.40;99.90
13346;DHT22;6742;48.036;15.780;2023-10-09T15:18:53;17.30;99.90
13346;DHT22;6742;48.036;15.780;2023-10-09T15:21:21;17.30;99.90
13346;DHT22;6742;48.036;15.780;2023-10-09T15:23:52;17.30;99.90
13346;DHT22;6742;48.036;15.780;2023-10-09T15:26:20;17.20;99.90
13346;DHT22;6742;48.036;15.780;2023-10-09T15:28:48;17.20;99.90
13346;DHT22;6742;48.036;15.780;2023-10-09T15:31:16;17.10;99.90
13346;DHT22;6742;48.036;15.780;2023-10-09T15:33:44;17.10;99.90
13346;DHT22;6742;48.036;15.780;2023-10-09T15:36:13;17.10;99.90
13346;DHT22;6742;48.036;15.780;2023-10-09T15:38:44;17.10;99.90
13346;DHT22;6742;48.036;15.780;2023-10-09T15:41:10;17.10;99.90
13346;DHT22;6742;48.036;15.780;2023-10-09T15:43:41;17.00;99.90
13346;DHT22;6742;48.036;15.780;2023-10-09T15:46:11;16.80;99.90
13346;DHT22;6742;48.036;15.780;2023-10-09T15:48:40;16.80;99.90
13346;DHT22;6742;48.036;15.780;2023-10-09T15:51:09;16.80;99.90
13346;DHT22;6742;48.036;15.780;2023-10-09T15:53:40;16.80;99.90
13346;DHT22;6742;48.036;15.780;2023-10-09T15:56:09;16.80;99.90
13346;DHT22;6742;48.036;15.780;2023-10-09T15:58:38;16.80;99.90
13346;DHT22;6742;48.036;15.780;2023-10-09T16:01:09;16.70;99.90
13346;DHT22;6742;48.036;15.780;2023-10-09T16:03:39;16.60;99.90
13346;DHT22;6742;48.036;15.780;2023-10-09T16:06:06;16.60;99.90
13346;DHT22;6742;48.036;15.780;2023-10-09T16:08:36;16.60;99.90
13346;DHT22;6742;48.036;15.780;2023-10-09T16:11:04;16.70;99.90
13346;DHT22;6742;48.036;15.780;2023-10-09T16:13:32;16.70;99.90